createdAt,value
2018-03-02T00:02:36.319Z,4.97
2018-03-02T00:05:41.738Z,2.20
2018-03-02T00:08:47.272Z,3.73
2018-03-02T00:11:52.578Z,3.20
2018-03-02T00:14:58.146Z,5.07
2018-03-02T00:18:03.701Z,3.00
2018-03-02T00:21:09.223Z,5.63
2018-03-02T00:24:14.738Z,3.27
2018-03-02T00:27:20.295Z,5.40
2018-03-02T00:30:25.847Z,3.20
2018-03-02T00:33:31.434Z,5.03
2018-03-02T00:36:36.713Z,6.63
2018-03-02T00:39:42.274Z,3.13
2018-03-02T00:42:47.857Z,5.63
2018-03-02T00:45:53.375Z,8.80
2018-03-02T00:48:58.641Z,5.50
2018-03-02T00:52:04.146Z,6.57
2018-03-02T00:55:09.458Z,2.87
2018-03-02T00:58:14.660Z,3.17
2018-03-02T01:01:20.236Z,4.53
2018-03-02T01:04:25.773Z,6.60
2018-03-02T01:07:31.209Z,2.90
2018-03-02T01:10:37.534Z,2.50
2018-03-02T01:13:43.101Z,2.67
2018-03-02T01:16:48.704Z,4.03
2018-03-02T01:19:54.277Z,4.30
2018-03-02T01:22:59.591Z,2.50
2018-03-02T01:26:04.893Z,2.90
2018-03-02T01:29:10.304Z,2.73
2018-03-02T01:32:15.810Z,3.40
2018-03-02T01:35:21.367Z,3.23
2018-03-02T01:38:26.753Z,4.70
2018-03-02T01:41:32.383Z,2.63
2018-03-02T01:44:37.886Z,4.13
2018-03-02T01:47:44.291Z,8.87
2018-03-02T01:51:03.823Z,5.47
2018-03-02T01:54:35.469Z,4.60
2018-03-02T02:01:36.047Z,6.67
2018-03-02T02:05:17.695Z,4.87
2018-03-02T02:08:40.437Z,4.70
2018-03-02T02:11:54.722Z,4.53
2018-03-02T02:15:23.511Z,3.67
2018-03-02T02:18:53.700Z,3.90
2018-03-02T02:22:27.596Z,4.90
2018-03-02T02:25:57.710Z,9.80
2018-03-02T02:29:33.270Z,6.63
2018-03-02T02:32:46.073Z,6.23
2018-03-02T02:35:51.637Z,5.63
2018-03-02T02:38:57.193Z,11.20
2018-03-02T02:42:02.713Z,4.70
2018-03-02T02:45:18.689Z,7.87
2018-03-02T02:48:47.866Z,3.00
2018-03-02T02:52:04.530Z,7.87
2018-03-02T02:58:36.917Z,10.80
2018-03-02T03:01:46.977Z,7.07
2018-03-02T03:04:54.844Z,3.37
2018-03-02T03:08:02.801Z,5.70
2018-03-02T03:11:10.964Z,3.83
2018-03-02T03:14:17.595Z,7.43
2018-03-02T03:17:24.595Z,3.83
2018-03-02T03:20:30.572Z,6.00
2018-03-02T03:23:36.122Z,6.20
2018-03-02T03:26:41.893Z,9.10
2018-03-02T03:29:47.405Z,6.47
2018-03-02T03:32:52.948Z,4.87
2018-03-02T03:35:58.460Z,8.77
2018-03-02T03:39:03.831Z,6.40
2018-03-02T03:42:09.092Z,5.50
2018-03-02T03:45:14.668Z,6.77
2018-03-02T03:48:20.178Z,10.03
2018-03-02T03:51:25.728Z,8.50
2018-03-02T03:54:31.261Z,9.43
2018-03-02T03:57:41.175Z,9.83
2018-03-02T04:00:46.743Z,6.30
2018-03-02T04:03:52.264Z,8.30
2018-03-02T04:06:57.828Z,7.60
2018-03-02T04:10:03.376Z,9.77
2018-03-02T04:13:08.940Z,10.57
2018-03-02T04:16:14.204Z,6.20
2018-03-02T04:19:19.778Z,9.37
2018-03-02T04:22:25.089Z,8.00
2018-03-02T04:25:30.634Z,6.10
2018-03-02T04:28:36.190Z,7.17
2018-03-02T04:31:41.708Z,8.10
2018-03-02T04:34:47.253Z,7.67
2018-03-02T04:37:52.875Z,8.20
2018-03-02T04:40:58.396Z,15.10
2018-03-02T04:44:03.959Z,8.73
2018-03-02T04:47:09.301Z,7.47
2018-03-02T04:50:14.882Z,7.57
2018-03-02T04:53:20.385Z,10.40
2018-03-02T04:56:25.953Z,7.73
2018-03-02T04:59:31.453Z,8.47
2018-03-02T05:02:36.757Z,15.87
2018-03-02T05:05:42.273Z,8.40
2018-03-02T05:08:47.835Z,11.97
2018-03-02T05:11:53.401Z,17.70
2018-03-02T05:14:59.037Z,16.03
2018-03-02T05:18:05.629Z,7.90
2018-03-02T05:21:21.461Z,11.80
2018-03-02T05:24:40.218Z,11.27
2018-03-02T05:28:01.084Z,7.73
2018-03-02T05:31:12.811Z,12.30
2018-03-02T05:34:18.392Z,14.67
2018-03-02T05:37:23.610Z,9.83
2018-03-02T05:40:29.605Z,10.57
2018-03-02T05:43:35.109Z,12.73
2018-03-02T05:46:40.669Z,8.40
2018-03-02T05:49:45.988Z,10.07
2018-03-02T05:52:51.288Z,10.93
2018-03-02T05:55:57.029Z,12.77
2018-03-02T05:59:02.532Z,10.53
2018-03-02T06:02:08.224Z,14.57
2018-03-02T06:08:31.980Z,12.40
2018-03-02T06:11:37.250Z,12.57
2018-03-02T06:14:42.825Z,10.87
2018-03-02T06:17:48.341Z,17.40
2018-03-02T06:20:53.905Z,10.80
2018-03-02T06:23:59.423Z,10.77
2018-03-02T06:27:04.975Z,12.70
2018-03-02T06:30:10.565Z,14.50
2018-03-02T06:33:16.120Z,11.40
2018-03-02T06:36:21.645Z,9.50
2018-03-02T06:39:26.953Z,9.50
2018-03-02T06:42:32.469Z,8.23
2018-03-02T06:45:38.056Z,14.90
2018-03-02T06:48:43.417Z,13.57
2018-03-02T06:51:48.732Z,13.93
2018-03-02T06:54:54.234Z,13.50
2018-03-02T06:57:59.798Z,12.80
2018-03-02T07:01:05.384Z,10.57
2018-03-02T07:04:10.888Z,10.03
2018-03-02T07:07:16.456Z,11.13
2018-03-02T07:10:22.034Z,10.27
2018-03-02T07:13:27.579Z,12.47
2018-03-02T07:16:33.092Z,8.80
2018-03-02T07:19:38.438Z,14.40
2018-03-02T07:22:43.800Z,12.13
2018-03-02T07:25:49.375Z,12.20
2018-03-02T07:28:54.887Z,23.63
2018-03-02T07:32:00.450Z,14.87
2018-03-02T07:35:06.028Z,11.93
2018-03-02T07:38:11.549Z,13.10
2018-03-02T07:41:17.119Z,10.57
2018-03-02T07:44:22.630Z,17.50
2018-03-02T07:47:28.195Z,18.43
2018-03-02T07:50:33.701Z,15.30
2018-03-02T07:53:38.704Z,10.93
2018-03-02T07:56:44.225Z,12.10
2018-03-02T07:59:49.789Z,13.70
2018-03-02T08:02:55.416Z,12.80
2018-03-02T08:06:00.745Z,16.73
2018-03-02T08:09:05.949Z,14.00
2018-03-02T08:12:11.494Z,18.77
2018-03-02T08:15:17.133Z,14.10
2018-03-02T08:18:22.745Z,14.43
2018-03-02T08:21:28.326Z,16.47
2018-03-02T08:24:33.849Z,17.30
2018-03-02T08:27:41.572Z,13.97
2018-03-02T08:30:47.130Z,15.27
2018-03-02T08:33:52.664Z,16.27
2018-03-02T08:36:58.189Z,15.17
2018-03-02T08:40:03.742Z,14.40
2018-03-02T08:43:09.290Z,14.30
2018-03-02T08:46:14.804Z,13.53
2018-03-02T08:49:20.393Z,13.33
2018-03-02T08:52:25.841Z,14.03
2018-03-02T08:55:31.391Z,13.63
2018-03-02T08:58:36.652Z,15.03
2018-03-02T09:01:42.296Z,12.40
2018-03-02T09:04:47.789Z,10.40
2018-03-02T09:07:53.389Z,13.40
2018-03-02T09:10:58.653Z,13.40
2018-03-02T09:14:04.205Z,12.40
2018-03-02T09:17:09.744Z,15.73
2018-03-02T09:20:15.303Z,13.43
2018-03-02T09:23:20.849Z,16.23
2018-03-02T09:26:26.410Z,14.83
2018-03-02T09:29:31.693Z,19.73
2018-03-02T09:32:36.777Z,13.10
2018-03-02T09:35:42.375Z,14.33
2018-03-02T09:38:47.929Z,15.40
2018-03-02T09:41:53.496Z,18.37
2018-03-02T09:44:58.787Z,16.50
2018-03-02T09:48:04.381Z,16.80
2018-03-02T09:51:09.587Z,13.20
2018-03-02T09:54:14.646Z,13.40
2018-03-02T09:57:20.154Z,20.63
2018-03-02T10:00:25.756Z,16.07
2018-03-02T10:03:31.296Z,17.23
2018-03-02T10:06:36.846Z,11.80
2018-03-02T10:09:42.392Z,14.53
2018-03-02T10:12:47.965Z,12.77
2018-03-02T10:15:53.508Z,16.23
2018-03-02T10:18:59.037Z,22.33
2018-03-02T10:22:04.596Z,14.07
2018-03-02T10:25:10.120Z,16.37
2018-03-02T10:28:15.686Z,14.33
2018-03-02T10:31:21.200Z,14.33
2018-03-02T10:34:26.747Z,17.17
2018-03-02T10:37:32.294Z,13.30
2018-03-02T10:40:37.605Z,16.27
2018-03-02T10:43:42.915Z,11.87
2018-03-02T10:46:48.431Z,13.67
2018-03-02T10:49:54.048Z,15.37
2018-03-02T10:52:59.565Z,17.90
2018-03-02T10:56:04.877Z,15.67
2018-03-02T10:59:10.149Z,20.33
2018-03-02T11:02:21.272Z,16.73
2018-03-02T11:05:32.106Z,17.83
2018-03-02T11:08:37.465Z,18.60
2018-03-02T11:11:43.017Z,12.97
2018-03-02T11:14:48.518Z,18.97
2018-03-02T11:17:53.913Z,21.70
2018-03-02T11:20:59.413Z,14.10
2018-03-02T11:24:04.985Z,13.83
2018-03-02T11:27:10.521Z,15.50
2018-03-02T11:30:16.141Z,14.27
2018-03-02T11:33:21.686Z,17.40
2018-03-02T11:36:26.961Z,17.50
2018-03-02T11:39:32.515Z,15.07
2018-03-02T11:42:37.829Z,12.53
2018-03-02T11:45:43.359Z,13.33
2018-03-02T11:48:48.910Z,15.33
2018-03-02T11:51:54.478Z,14.60
2018-03-02T11:55:00.044Z,11.43
2018-03-02T11:58:05.560Z,10.67
2018-03-02T12:01:11.150Z,14.27
2018-03-02T12:04:16.701Z,13.13
2018-03-02T12:07:22.062Z,13.37
2018-03-02T12:10:27.612Z,14.50
2018-03-02T12:13:33.197Z,14.10
2018-03-02T12:16:38.802Z,11.63
2018-03-02T12:19:44.345Z,15.80
2018-03-02T12:22:49.678Z,20.40
2018-03-02T12:25:55.245Z,11.03
2018-03-02T12:29:00.809Z,12.93
2018-03-02T12:32:06.454Z,17.63
2018-03-02T12:35:11.970Z,12.37
2018-03-02T12:38:17.528Z,10.23
2018-03-02T12:41:23.088Z,15.00
2018-03-02T12:44:28.648Z,13.50
2018-03-02T12:47:34.301Z,16.83
2018-03-02T12:50:39.864Z,15.40
2018-03-02T12:53:45.384Z,12.27
2018-03-02T12:56:50.972Z,10.77
2018-03-02T12:59:56.467Z,9.47
2018-03-02T13:03:01.877Z,11.40
2018-03-02T13:06:07.201Z,12.73
2018-03-02T13:09:12.768Z,10.60
2018-03-02T13:12:18.279Z,10.07
2018-03-02T13:15:23.918Z,10.63
2018-03-02T13:18:40.521Z,13.03
2018-03-02T13:21:46.101Z,11.40
2018-03-02T13:24:51.373Z,10.67
2018-03-02T13:28:07.941Z,10.30
2018-03-02T13:31:13.218Z,9.50
2018-03-02T13:34:29.549Z,11.57
2018-03-02T13:37:34.861Z,10.30
2018-03-02T13:41:06.733Z,10.43
2018-03-02T13:44:11.873Z,10.93
2018-03-02T13:47:17.105Z,11.70
2018-03-02T13:50:22.429Z,17.33
2018-03-02T13:53:27.929Z,21.90
2018-03-02T13:56:44.650Z,9.43
2018-03-02T13:59:49.913Z,7.70
2018-03-02T14:03:06.501Z,10.00
2018-03-02T14:06:11.796Z,12.23
2018-03-02T14:09:17.306Z,11.50
2018-03-02T14:12:22.853Z,10.70
2018-03-02T14:15:28.372Z,10.23
2018-03-02T14:18:33.925Z,11.40
2018-03-02T14:21:39.477Z,12.30
2018-03-02T14:24:45.039Z,11.67
2018-03-02T14:27:50.495Z,16.93
2018-03-02T14:30:56.013Z,12.80
2018-03-02T14:34:01.587Z,13.00
2018-03-02T14:37:07.169Z,8.87
2018-03-02T14:40:12.681Z,15.53
2018-03-02T14:43:21.565Z,18.17
2018-03-02T14:46:28.026Z,9.27
2018-03-02T14:49:33.629Z,15.17
2018-03-02T14:52:39.134Z,11.07
2018-03-02T14:55:44.677Z,12.03
2018-03-02T14:58:50.270Z,15.37
2018-03-02T15:01:55.760Z,16.83
2018-03-02T15:05:01.299Z,10.30
2018-03-02T15:08:24.550Z,10.90
2018-03-02T15:11:53.429Z,12.60
2018-03-02T15:14:58.734Z,13.90
2018-03-02T15:18:12.167Z,16.83
2018-03-02T15:21:22.029Z,13.77
2018-03-02T15:24:39.811Z,11.13
2018-03-02T15:28:12.435Z,15.90
2018-03-02T15:31:27.433Z,13.20
2018-03-02T15:35:03.850Z,14.73
2018-03-02T15:38:25.629Z,12.50
2018-03-02T15:41:40.650Z,12.13
2018-03-02T15:45:03.445Z,9.30
2018-03-02T15:48:38.950Z,14.20
2018-03-02T15:51:58.524Z,14.60
2018-03-02T15:55:16.067Z,12.10
2018-03-02T15:58:37.337Z,17.27
2018-03-02T16:02:17.349Z,11.37
2018-03-02T16:05:44.489Z,12.67
2018-03-02T16:09:03.160Z,16.80
2018-03-02T16:12:29.452Z,12.93
2018-03-02T16:15:53.572Z,15.30
2018-03-02T16:19:11.007Z,12.30
2018-03-02T16:22:35.729Z,10.43
2018-03-02T16:26:00.174Z,16.30
2018-03-02T16:29:17.457Z,9.43
2018-03-02T16:32:34.579Z,13.73
2018-03-02T16:36:11.874Z,16.67
2018-03-02T16:42:51.330Z,12.27
2018-03-02T16:46:01.560Z,20.27
2018-03-02T16:49:13.768Z,10.83
2018-03-02T16:52:22.247Z,14.70
2018-03-02T16:55:51.818Z,11.77
2018-03-02T16:59:01.991Z,16.90
2018-03-02T17:02:11.110Z,22.03
2018-03-02T17:05:20.474Z,17.13
2018-03-02T17:08:34.641Z,14.13
2018-03-02T17:11:45.402Z,11.23
2018-03-02T17:14:57.789Z,13.60
2018-03-02T17:18:09.849Z,15.47
2018-03-02T17:21:19.809Z,16.47
2018-03-02T17:24:34.821Z,13.70
2018-03-02T17:27:49.468Z,15.67
2018-03-02T17:31:07.779Z,14.10
2018-03-02T17:34:25.032Z,12.70
2018-03-02T17:37:34.684Z,17.13
2018-03-02T17:40:45.924Z,13.90
2018-03-02T17:43:52.041Z,14.70
2018-03-02T17:46:57.590Z,18.30
2018-03-02T17:50:03.113Z,16.00
2018-03-02T17:53:08.680Z,11.27
2018-03-02T17:56:15.340Z,14.33
2018-03-02T17:59:20.904Z,12.17
2018-03-02T18:02:26.500Z,14.60
2018-03-02T18:05:32.973Z,14.30
2018-03-02T18:08:38.489Z,15.00
2018-03-02T18:11:44.062Z,15.80
2018-03-02T18:14:49.356Z,11.00
2018-03-02T18:18:00.652Z,16.30
2018-03-02T18:21:08.922Z,13.53
2018-03-02T18:24:14.183Z,15.77
2018-03-02T18:27:19.742Z,11.70
2018-03-02T18:30:25.273Z,12.50
2018-03-02T18:33:30.873Z,10.93
2018-03-02T18:36:36.432Z,11.57
2018-03-02T18:39:42.001Z,11.77
2018-03-02T18:42:47.552Z,13.07
2018-03-02T18:45:53.078Z,16.00
2018-03-02T18:49:00.097Z,14.63
2018-03-02T18:52:06.839Z,19.23
2018-03-02T18:55:15.942Z,10.97
2018-03-02T18:58:21.538Z,9.90
2018-03-02T19:01:27.200Z,14.93
2018-03-02T19:04:32.729Z,9.90
2018-03-02T19:07:41.366Z,12.20
2018-03-02T19:10:51.196Z,10.60
2018-03-02T19:13:57.019Z,15.73
2018-03-02T19:17:02.600Z,14.63
2018-03-02T19:20:07.993Z,11.90
2018-03-02T19:23:13.615Z,10.40
2018-03-02T19:26:24.302Z,11.40
2018-03-02T19:29:33.560Z,11.60
2018-03-02T19:32:43.519Z,11.43
2018-03-02T19:36:01.664Z,13.67
2018-03-02T19:39:10.388Z,10.40
2018-03-02T19:42:17.885Z,13.10
2018-03-02T19:45:27.842Z,16.07
2018-03-02T19:48:39.527Z,9.60
2018-03-02T19:51:50.983Z,11.67
2018-03-02T19:55:01.108Z,13.83
2018-03-02T19:58:10.621Z,15.37
2018-03-02T20:01:21.518Z,12.00
2018-03-02T20:04:37.115Z,14.40
2018-03-02T20:07:51.111Z,9.97
2018-03-02T20:10:58.268Z,16.13
2018-03-02T20:14:05.715Z,17.10
2018-03-02T20:17:15.898Z,16.03
2018-03-02T20:20:24.502Z,12.50
2018-03-02T20:23:35.889Z,12.93
2018-03-02T20:26:46.153Z,9.80
2018-03-02T20:29:58.786Z,11.77
2018-03-02T20:33:23.932Z,15.20
2018-03-02T20:36:39.532Z,9.93
2018-03-02T20:39:47.620Z,13.07
2018-03-02T20:42:55.690Z,12.83
2018-03-02T20:46:02.998Z,11.03
2018-03-02T20:49:13.326Z,11.73
2018-03-02T20:52:19.591Z,13.60
2018-03-02T20:55:24.847Z,12.33
2018-03-02T20:58:30.157Z,17.23
2018-03-02T21:01:35.779Z,14.13
2018-03-02T21:04:42.025Z,10.13
2018-03-02T21:07:47.575Z,13.53
2018-03-02T21:10:53.121Z,13.63
2018-03-02T21:13:59.851Z,13.40
2018-03-02T21:17:06.265Z,17.83
2018-03-02T21:20:11.886Z,11.50
2018-03-02T21:23:17.384Z,12.33
2018-03-02T21:26:22.941Z,12.07
2018-03-02T21:29:28.470Z,9.70
2018-03-02T21:32:34.039Z,14.60
2018-03-02T21:35:39.551Z,14.03
2018-03-02T21:38:45.106Z,14.50
2018-03-02T21:41:50.606Z,8.83
2018-03-02T21:45:09.645Z,10.97
2018-03-02T21:48:15.191Z,9.63
2018-03-02T21:51:20.721Z,12.00
2018-03-02T21:54:26.262Z,10.83
2018-03-02T21:57:31.840Z,8.13
2018-03-02T22:00:37.417Z,10.67
2018-03-02T22:03:42.921Z,12.60
2018-03-02T22:06:48.494Z,11.83
2018-03-02T22:09:54.010Z,9.90
2018-03-02T22:12:59.576Z,14.17
2018-03-02T22:16:05.009Z,12.33
2018-03-02T22:19:10.562Z,13.30
2018-03-02T22:22:16.118Z,13.50
2018-03-02T22:25:21.625Z,10.77
2018-03-02T22:28:27.176Z,13.67
2018-03-02T22:31:32.718Z,10.00
2018-03-02T22:34:38.265Z,8.47
2018-03-02T22:37:43.822Z,15.40
2018-03-02T22:40:49.325Z,15.60
2018-03-02T22:43:54.882Z,11.33
2018-03-02T22:47:00.394Z,11.93
2018-03-02T22:50:05.965Z,15.30
2018-03-02T22:53:11.476Z,13.97
2018-03-02T22:56:17.032Z,13.33
2018-03-02T22:59:22.558Z,13.70
2018-03-02T23:02:28.192Z,13.27
2018-03-02T23:05:33.741Z,13.57
2018-03-02T23:08:39.313Z,13.80
2018-03-02T23:11:44.881Z,17.97
2018-03-02T23:14:50.385Z,15.10
2018-03-02T23:17:55.968Z,16.03
2018-03-02T23:21:01.470Z,12.53
2018-03-02T23:24:07.141Z,13.53
2018-03-02T23:27:12.656Z,12.90
2018-03-02T23:30:18.222Z,15.43
2018-03-02T23:33:23.725Z,16.10
2018-03-02T23:36:29.284Z,18.00
2018-03-02T23:39:34.833Z,17.33
2018-03-02T23:42:40.342Z,16.53
2018-03-02T23:45:45.892Z,11.33
2018-03-02T23:48:51.401Z,18.10
2018-03-02T23:51:56.972Z,12.17
2018-03-02T23:55:02.490Z,18.10
2018-03-02T23:58:08.075Z,19.77
